createdAt,value
2018-06-19T00:01:44.217Z,20.81
2018-06-19T00:04:15.224Z,20.73
2018-06-19T00:06:46.385Z,20.55
2018-06-19T00:09:17.493Z,20.46
2018-06-19T00:11:48.759Z,20.31
2018-06-19T00:14:19.729Z,20.36
2018-06-19T00:16:50.990Z,20.35
2018-06-19T00:19:22.252Z,20.28
2018-06-19T00:21:56.246Z,20.04
2018-06-19T00:24:27.598Z,20.00
2018-06-19T00:26:58.923Z,19.99
2018-06-19T00:29:30.153Z,19.98
2018-06-19T00:32:01.237Z,20.00
2018-06-19T00:34:32.145Z,20.00
2018-06-19T00:37:03.100Z,20.04
2018-06-19T00:39:33.986Z,20.01
2018-06-19T00:42:05.041Z,20.03
2018-06-19T00:44:36.040Z,20.06
2018-06-19T00:47:07.076Z,20.02
2018-06-19T00:49:38.064Z,20.05
2018-06-19T00:52:08.996Z,20.03
2018-06-19T00:54:40.012Z,20.04
2018-06-19T00:57:10.883Z,20.08
2018-06-19T00:59:41.991Z,20.05
2018-06-19T01:02:13.027Z,20.12
2018-06-19T01:04:43.962Z,20.11
2018-06-19T01:07:15.197Z,20.01
2018-06-19T01:09:47.251Z,20.17
2018-06-19T01:12:18.376Z,20.24
2018-06-19T01:14:49.526Z,20.21
2018-06-19T01:17:20.652Z,20.25
2018-06-19T01:19:52.077Z,20.26
2018-06-19T01:22:23.210Z,20.33
2018-06-19T01:24:54.361Z,20.31
2018-06-19T01:27:25.640Z,20.29
2018-06-19T01:29:56.547Z,20.31
2018-06-19T01:32:27.929Z,20.26
2018-06-19T01:34:58.904Z,20.29
2018-06-19T01:37:30.154Z,20.29
2018-06-19T01:40:01.030Z,20.35
2018-06-19T01:42:31.961Z,20.37
2018-06-19T01:45:03.037Z,20.26
2018-06-19T01:47:33.924Z,20.31
2018-06-19T01:50:04.882Z,20.28
2018-06-19T01:52:36.116Z,20.17
2018-06-19T01:55:07.146Z,20.14
2018-06-19T01:57:38.693Z,20.12
2018-06-19T02:00:09.783Z,20.07
2018-06-19T02:02:40.852Z,20.08
2018-06-19T02:05:11.967Z,20.00
2018-06-19T02:07:42.918Z,19.99
2018-06-19T02:10:13.848Z,20.01
2018-06-19T02:12:44.944Z,19.95
2018-06-19T02:15:16.045Z,19.92
2018-06-19T02:17:47.125Z,19.84
2018-06-19T02:20:18.127Z,19.75
2018-06-19T02:22:49.072Z,19.63
2018-06-19T02:25:19.883Z,19.73
2018-06-19T02:27:50.856Z,19.67
2018-06-19T02:30:22.111Z,19.70
2018-06-19T02:32:53.244Z,19.65
2018-06-19T02:35:24.269Z,19.60
2018-06-19T02:37:55.216Z,19.58
2018-06-19T02:40:26.384Z,19.59
2018-06-19T02:42:57.400Z,19.62
2018-06-19T02:45:28.361Z,19.62
2018-06-19T02:47:59.409Z,19.61
2018-06-19T02:50:30.231Z,19.63
2018-06-19T02:53:01.357Z,19.73
2018-06-19T02:55:32.419Z,19.86
2018-06-19T02:58:03.359Z,20.01
2018-06-19T03:00:34.496Z,20.23
2018-06-19T03:03:05.506Z,20.50
2018-06-19T03:05:36.483Z,20.67
2018-06-19T03:08:07.723Z,20.91
2018-06-19T03:10:38.858Z,21.15
2018-06-19T03:13:09.971Z,21.36
2018-06-19T03:15:40.790Z,21.68
2018-06-19T03:18:11.877Z,22.21
2018-06-19T03:20:42.719Z,22.10
2018-06-19T03:23:13.615Z,21.94
2018-06-19T03:25:45.348Z,21.74
2018-06-19T03:28:16.373Z,21.66
2018-06-19T03:30:47.474Z,21.48
2018-06-19T03:33:18.464Z,21.42
2018-06-19T03:35:49.686Z,21.60
2018-06-19T03:38:20.689Z,21.90
2018-06-19T03:40:52.038Z,22.04
2018-06-19T03:43:23.262Z,22.35
2018-06-19T03:45:54.369Z,22.79
2018-06-19T03:48:25.792Z,23.35
2018-06-19T03:50:56.876Z,23.82
2018-06-19T03:53:28.008Z,23.94
2018-06-19T03:55:58.958Z,24.33
2018-06-19T03:58:30.137Z,25.22
2018-06-19T04:01:01.377Z,25.81
2018-06-19T04:03:34.023Z,26.06
2018-06-19T04:06:05.177Z,26.57
2018-06-19T04:08:36.487Z,26.21
2018-06-19T04:11:07.223Z,25.88
2018-06-19T04:13:38.490Z,26.48
2018-06-19T04:16:09.698Z,27.15
2018-06-19T04:18:40.655Z,27.68
2018-06-19T04:21:11.591Z,28.09
2018-06-19T04:23:42.622Z,28.58
2018-06-19T04:26:13.736Z,28.60
2018-06-19T04:28:44.826Z,28.86
2018-06-19T04:31:15.665Z,28.64
2018-06-19T04:33:46.893Z,28.67
2018-06-19T04:36:18.430Z,27.70
2018-06-19T04:38:49.546Z,26.68
2018-06-19T04:41:20.544Z,25.65
2018-06-19T04:43:51.880Z,26.16
2018-06-19T04:46:23.932Z,26.21
2018-06-19T04:48:55.035Z,26.45
2018-06-19T04:51:26.303Z,26.73
2018-06-19T04:53:57.186Z,26.52
2018-06-19T04:56:28.469Z,26.58
2018-06-19T04:58:59.837Z,27.27
2018-06-19T05:01:30.791Z,27.93
2018-06-19T05:04:01.855Z,28.60
2018-06-19T05:06:33.108Z,29.01
2018-06-19T05:09:04.357Z,29.05
2018-06-19T05:11:35.492Z,29.83
2018-06-19T05:14:06.801Z,30.89
2018-06-19T05:16:37.924Z,31.38
2018-06-19T05:19:08.947Z,31.30
2018-06-19T05:21:40.162Z,30.73
2018-06-19T05:24:12.183Z,30.80
2018-06-19T05:26:43.174Z,30.22
2018-06-19T05:29:14.233Z,30.80
2018-06-19T05:31:45.202Z,29.42
2018-06-19T05:34:16.373Z,28.99
2018-06-19T05:36:47.682Z,28.47
2018-06-19T05:39:18.781Z,29.10
2018-06-19T05:41:49.962Z,29.30
2018-06-19T05:44:21.135Z,29.27
2018-06-19T05:46:52.144Z,30.10
2018-06-19T05:49:23.196Z,30.64
2018-06-19T05:51:54.523Z,31.14
2018-06-19T05:54:25.545Z,32.03
2018-06-19T05:56:56.517Z,32.99
2018-06-19T05:59:27.611Z,33.45
2018-06-19T06:01:58.595Z,33.79
2018-06-19T06:04:30.202Z,33.00
2018-06-19T06:07:01.380Z,33.49
2018-06-19T06:09:32.507Z,33.14
2018-06-19T06:12:03.815Z,33.18
2018-06-19T06:14:35.123Z,31.70
2018-06-19T06:17:06.336Z,32.04
2018-06-19T06:19:37.133Z,32.43
2018-06-19T06:22:08.138Z,31.50
2018-06-19T06:24:39.365Z,31.97
2018-06-19T06:27:10.492Z,32.12
2018-06-19T06:29:41.675Z,32.14
2018-06-19T06:32:12.936Z,32.03
2018-06-19T06:34:44.150Z,32.04
2018-06-19T06:37:15.466Z,32.66
2018-06-19T06:39:46.616Z,33.55
2018-06-19T06:42:17.834Z,33.78
2018-06-19T06:44:49.331Z,32.72
2018-06-19T06:47:20.504Z,32.24
2018-06-19T06:49:51.861Z,33.30
2018-06-19T06:52:22.640Z,33.44
2018-06-19T06:54:53.986Z,34.02
2018-06-19T06:57:25.095Z,34.20
2018-06-19T06:59:56.351Z,33.64
2018-06-19T07:02:27.449Z,34.15
2018-06-19T07:04:58.432Z,34.06
2018-06-19T07:07:29.698Z,33.63
2018-06-19T07:10:00.925Z,34.17
2018-06-19T07:12:32.194Z,36.44
2018-06-19T07:15:03.340Z,36.37
2018-06-19T07:17:34.908Z,34.50
2018-06-19T07:20:06.234Z,32.69
2018-06-19T07:22:38.225Z,32.81
2018-06-19T07:25:10.037Z,32.82
2018-06-19T07:27:41.189Z,32.77
2018-06-19T07:30:12.088Z,33.36
2018-06-19T07:32:42.929Z,33.57
2018-06-19T07:35:14.278Z,35.26
2018-06-19T07:37:45.906Z,34.58
2018-06-19T07:40:16.918Z,33.83
2018-06-19T07:42:48.222Z,33.92
2018-06-19T07:45:19.400Z,33.55
2018-06-19T07:47:50.222Z,32.85
2018-06-19T07:50:22.229Z,31.40
2018-06-19T07:52:53.421Z,31.17
2018-06-19T07:55:24.431Z,32.33
2018-06-19T07:57:55.576Z,33.13
2018-06-19T08:01:55.795Z,33.34
2018-06-19T08:04:27.707Z,32.96
2018-06-19T08:06:58.816Z,32.37
2018-06-19T08:09:29.862Z,32.13
2018-06-19T08:12:00.917Z,31.76
2018-06-19T08:14:32.204Z,30.74
2018-06-19T08:17:04.401Z,30.26
2018-06-19T08:19:35.284Z,29.34
2018-06-19T08:22:06.386Z,29.31
2018-06-19T08:24:37.963Z,28.90
2018-06-19T08:27:09.087Z,28.73
2018-06-19T08:29:40.214Z,28.81
2018-06-19T08:32:11.321Z,28.74
2018-06-19T08:34:42.662Z,28.79
2018-06-19T08:37:13.645Z,28.81
2018-06-19T08:39:45.763Z,28.66
2018-06-19T08:42:16.995Z,28.65
2018-06-19T08:44:48.119Z,28.51
2018-06-19T08:47:19.167Z,28.54
2018-06-19T08:49:50.173Z,28.73
2018-06-19T08:52:21.225Z,28.57
2018-06-19T08:54:52.496Z,28.53
2018-06-19T08:57:23.414Z,28.80
2018-06-19T08:59:54.415Z,28.90
2018-06-19T09:02:25.399Z,28.75
2018-06-19T09:04:56.747Z,28.83
2018-06-19T09:07:28.219Z,28.51
2018-06-19T09:09:59.230Z,28.51
2018-06-19T09:12:30.505Z,28.75
2018-06-19T09:15:01.584Z,28.88
2018-06-19T09:17:32.895Z,28.99
2018-06-19T09:20:04.104Z,28.87
2018-06-19T09:22:35.378Z,29.05
2018-06-19T09:25:06.746Z,29.10
2018-06-19T09:27:37.940Z,28.87
2018-06-19T09:30:09.082Z,28.86
2018-06-19T09:32:40.191Z,28.96
2018-06-19T09:35:11.262Z,28.95
2018-06-19T09:37:42.212Z,29.08
2018-06-19T09:40:13.219Z,28.97
2018-06-19T09:42:44.148Z,28.94
2018-06-19T09:45:15.146Z,29.33
2018-06-19T09:47:46.537Z,29.73
2018-06-19T09:50:17.685Z,29.59
2018-06-19T09:52:49.202Z,29.64
2018-06-19T09:55:20.548Z,29.66
2018-06-19T09:57:51.897Z,29.57
2018-06-19T10:00:27.686Z,29.22
2018-06-19T10:02:59.751Z,29.47
2018-06-19T10:05:32.310Z,29.33
2018-06-19T10:08:03.731Z,28.90
2018-06-19T10:10:34.711Z,28.63
2018-06-19T10:13:05.920Z,28.81
2018-06-19T10:15:37.040Z,28.77
2018-06-19T10:18:08.407Z,28.60
2018-06-19T10:20:39.387Z,28.56
2018-06-19T10:23:10.563Z,28.76
2018-06-19T10:25:41.377Z,28.86
2018-06-19T10:28:12.379Z,28.89
2018-06-19T10:30:43.674Z,28.97
2018-06-19T10:33:15.107Z,28.86
2018-06-19T10:35:46.372Z,29.00
2018-06-19T10:38:17.358Z,29.37
2018-06-19T10:40:48.545Z,29.25
2018-06-19T10:43:19.510Z,28.50
2018-06-19T10:45:50.722Z,27.83
2018-06-19T10:48:22.128Z,27.75
2018-06-19T10:50:53.201Z,27.71
2018-06-19T10:53:24.340Z,27.75
2018-06-19T10:55:55.373Z,27.88
2018-06-19T10:58:26.225Z,28.18
2018-06-19T11:00:57.174Z,28.50
2018-06-19T11:03:27.947Z,28.33
2018-06-19T11:05:59.156Z,27.68
2018-06-19T11:08:30.482Z,27.32
2018-06-19T11:11:01.359Z,27.38
2018-06-19T11:13:32.639Z,26.86
2018-06-19T11:16:03.621Z,27.17
2018-06-19T11:18:34.503Z,27.10
2018-06-19T11:21:05.603Z,27.15
2018-06-19T11:23:36.454Z,27.33
2018-06-19T11:26:07.449Z,27.37
2018-06-19T11:28:38.651Z,27.62
2018-06-19T11:31:10.718Z,27.46
2018-06-19T11:33:41.897Z,27.61
2018-06-19T11:36:13.168Z,27.56
2018-06-19T11:38:44.231Z,27.45
2018-06-19T11:41:15.325Z,27.80
2018-06-19T11:43:46.768Z,27.93
2018-06-19T11:46:17.508Z,27.91
2018-06-19T11:48:48.495Z,27.73
2018-06-19T11:51:19.804Z,27.95
2018-06-19T11:53:52.228Z,27.85
2018-06-19T11:56:23.431Z,28.19
2018-06-19T11:58:54.506Z,28.22
2018-06-19T12:01:25.508Z,28.01
2018-06-19T12:03:56.481Z,27.85
2018-06-19T12:06:27.398Z,27.70
2018-06-19T12:08:58.457Z,27.59
2018-06-19T12:11:29.480Z,27.45
2018-06-19T12:14:00.747Z,27.44
2018-06-19T12:16:32.014Z,27.52
2018-06-19T12:19:03.137Z,27.81
2018-06-19T12:21:34.372Z,27.61
2018-06-19T12:24:05.458Z,27.62
2018-06-19T12:26:36.508Z,27.75
2018-06-19T12:29:07.583Z,27.85
2018-06-19T12:31:38.485Z,27.90
2018-06-19T12:34:09.525Z,27.97
2018-06-19T12:36:40.492Z,27.56
2018-06-19T12:39:12.791Z,27.48
2018-06-19T12:41:45.122Z,27.30
2018-06-19T12:44:16.150Z,27.29
2018-06-19T12:46:47.131Z,27.09
2018-06-19T12:49:26.615Z,27.33
2018-06-19T12:52:08.271Z,27.46
2018-06-19T12:54:49.643Z,27.68
2018-06-19T12:57:20.394Z,27.81
2018-06-19T12:59:51.479Z,27.69
2018-06-19T13:02:22.456Z,27.86
2018-06-19T13:05:04.104Z,27.84
2018-06-19T13:07:35.513Z,27.71
2018-06-19T13:10:06.707Z,27.77
2018-06-19T13:12:48.197Z,27.59
2018-06-19T13:15:19.211Z,27.61
2018-06-19T13:18:00.683Z,27.35
2018-06-19T13:20:51.148Z,27.23
2018-06-19T13:23:21.972Z,27.17
2018-06-19T13:25:53.434Z,27.39
2018-06-19T13:28:35.973Z,27.11
2018-06-19T13:31:17.867Z,27.04
2018-06-19T13:33:48.912Z,27.00
2018-06-19T13:36:19.988Z,26.94
2018-06-19T13:38:51.180Z,27.00
2018-06-19T13:43:37.886Z,26.85
2018-06-19T13:46:09.079Z,26.81
2018-06-19T13:48:41.994Z,26.96
2018-06-19T13:51:15.090Z,26.84
2018-06-19T13:53:46.521Z,26.86
2018-06-19T13:57:29.256Z,26.82
2018-06-19T14:00:01.715Z,26.98
2018-06-19T14:02:32.743Z,27.17
2018-06-19T14:05:04.469Z,27.30
2018-06-19T14:07:40.437Z,27.26
2018-06-19T14:10:22.498Z,27.24
2018-06-19T14:13:00.875Z,27.38
2018-06-19T14:15:39.317Z,27.36
2018-06-19T14:18:10.793Z,27.37
2018-06-19T14:20:42.668Z,27.52
2018-06-19T14:23:14.007Z,27.30
2018-06-19T14:25:45.297Z,27.06
2018-06-19T14:28:16.480Z,27.05
2018-06-19T14:30:47.458Z,27.13
2018-06-19T14:33:19.090Z,27.23
2018-06-19T14:35:50.287Z,27.17
2018-06-19T14:38:21.557Z,27.14
2018-06-19T14:40:52.758Z,27.11
2018-06-19T14:43:23.739Z,27.15
2018-06-19T14:45:54.768Z,27.13
2018-06-19T14:48:25.688Z,27.15
2018-06-19T14:50:56.907Z,27.33
2018-06-19T14:53:28.358Z,27.44
2018-06-19T14:55:59.794Z,27.50
2018-06-19T14:58:30.860Z,27.48
2018-06-19T15:01:03.041Z,27.23
2018-06-19T15:03:34.263Z,27.15
2018-06-19T15:06:05.568Z,27.16
2018-06-19T15:08:36.561Z,27.19
2018-06-19T15:11:07.497Z,27.20
2018-06-19T15:13:38.519Z,27.18
2018-06-19T15:16:09.529Z,27.23
2018-06-19T15:18:40.402Z,27.09
2018-06-19T15:21:11.777Z,27.18
2018-06-19T15:23:42.266Z,27.07
2018-06-19T15:26:13.024Z,27.23
2018-06-19T15:28:43.733Z,27.25
2018-06-19T15:31:14.244Z,27.24
2018-06-19T15:33:44.936Z,27.15
2018-06-19T15:36:15.603Z,27.06
2018-06-19T15:38:46.647Z,27.00
2018-06-19T15:41:17.772Z,27.01
2018-06-19T15:43:48.907Z,27.02
2018-06-19T15:46:19.988Z,26.99
2018-06-19T15:48:50.985Z,27.02
2018-06-19T15:51:22.343Z,27.04
2018-06-19T15:53:53.325Z,26.97
2018-06-19T15:56:24.588Z,26.94
2018-06-19T15:58:55.688Z,26.82
2018-06-19T16:01:26.861Z,26.74
2018-06-19T16:03:57.820Z,26.70
2018-06-19T16:06:28.895Z,26.73
2018-06-19T16:09:00.386Z,26.65
2018-06-19T16:11:31.835Z,26.67
2018-06-19T16:14:03.041Z,26.62
2018-06-19T16:16:34.497Z,26.51
2018-06-19T16:19:05.685Z,26.51
2018-06-19T16:21:37.427Z,26.50
2018-06-19T16:24:08.628Z,26.50
2018-06-19T16:26:40.593Z,26.42
2018-06-19T16:29:12.019Z,26.31
2018-06-19T16:31:43.353Z,26.36
2018-06-19T16:34:14.981Z,26.30
2018-06-19T16:36:46.285Z,26.23
2018-06-19T16:39:17.450Z,26.20
2018-06-19T16:41:48.242Z,26.15
2018-06-19T16:44:19.348Z,26.12
2018-06-19T16:46:50.520Z,26.10
2018-06-19T16:49:21.313Z,26.06
2018-06-19T16:51:52.379Z,25.96
2018-06-19T16:54:23.313Z,25.90
2018-06-19T16:56:54.495Z,25.70
2018-06-19T16:59:25.710Z,25.74
2018-06-19T17:01:57.177Z,25.77
2018-06-19T17:04:28.413Z,25.63
2018-06-19T17:06:59.407Z,25.58
2018-06-19T17:09:30.388Z,25.54
2018-06-19T17:12:01.694Z,25.44
2018-06-19T17:14:33.310Z,25.27
2018-06-19T17:17:04.179Z,25.25
2018-06-19T17:19:35.094Z,25.17
2018-06-19T17:22:06.441Z,25.18
2018-06-19T17:24:37.185Z,25.06
2018-06-19T17:27:08.152Z,24.97
2018-06-19T17:29:38.966Z,24.81
2018-06-19T17:32:09.938Z,24.75
2018-06-19T17:34:41.141Z,24.68
2018-06-19T17:37:12.901Z,24.76
2018-06-19T17:39:43.882Z,24.71
2018-06-19T17:42:15.064Z,24.58
2018-06-19T17:44:46.131Z,24.60
2018-06-19T17:47:17.112Z,24.38
2018-06-19T17:49:48.192Z,24.13
2018-06-19T17:52:19.421Z,24.02
2018-06-19T17:54:50.423Z,23.90
2018-06-19T17:57:21.590Z,23.85
2018-06-19T17:59:52.882Z,23.84
2018-06-19T18:02:24.015Z,23.79
2018-06-19T18:04:55.014Z,23.75
2018-06-19T18:07:25.733Z,23.66
2018-06-19T18:09:57.166Z,23.71
2018-06-19T18:12:28.251Z,23.71
2018-06-19T18:14:59.243Z,23.60
2018-06-19T18:17:30.610Z,23.61
2018-06-19T18:20:01.409Z,23.60
2018-06-19T18:22:32.434Z,23.56
2018-06-19T18:25:03.389Z,23.55
2018-06-19T18:27:34.433Z,23.51
2018-06-19T18:30:05.474Z,23.52
2018-06-19T18:32:36.533Z,23.57
2018-06-19T18:35:07.548Z,23.48
2018-06-19T18:37:38.556Z,23.46
2018-06-19T18:40:09.534Z,23.46
2018-06-19T18:42:40.366Z,23.35
2018-06-19T18:45:12.786Z,22.94
2018-06-19T18:47:43.947Z,23.41
2018-06-19T18:50:15.183Z,23.47
2018-06-19T18:52:46.427Z,23.41
2018-06-19T18:55:17.327Z,23.45
2018-06-19T18:57:49.421Z,23.41
2018-06-19T19:00:20.987Z,23.45
2018-06-19T19:02:52.117Z,23.48
2018-06-19T19:05:23.961Z,23.52
2018-06-19T19:07:56.184Z,23.48
2018-06-19T19:10:32.217Z,23.54
2018-06-19T19:13:04.441Z,23.52
2018-06-19T19:15:40.265Z,23.48
2018-06-19T19:18:25.912Z,23.56
2018-06-19T19:20:57.941Z,23.56
2018-06-19T19:23:29.540Z,23.51
2018-06-19T19:26:00.657Z,23.52
2018-06-19T19:28:36.673Z,23.50
2018-06-19T19:31:07.762Z,23.49
2018-06-19T19:33:39.443Z,23.54
2018-06-19T19:36:14.796Z,23.53
2018-06-19T19:38:50.535Z,23.51
2018-06-19T19:41:21.889Z,23.49
2018-06-19T19:43:52.970Z,23.45
2018-06-19T19:46:28.848Z,23.45
2018-06-19T19:49:00.222Z,23.26
2018-06-19T19:51:31.916Z,23.20
2018-06-19T19:54:03.156Z,23.21
2018-06-19T19:56:39.232Z,23.25
2018-06-19T19:59:10.631Z,23.26
2018-06-19T20:01:41.815Z,23.31
2018-06-19T20:04:12.953Z,23.37
2018-06-19T20:06:43.991Z,23.38
2018-06-19T20:09:15.000Z,23.44
2018-06-19T20:11:45.983Z,23.53
2018-06-19T20:14:16.975Z,23.53
2018-06-19T20:16:47.874Z,23.58
2018-06-19T20:19:18.736Z,23.57
2018-06-19T20:21:49.986Z,23.60
2018-06-19T20:24:21.185Z,23.60
2018-06-19T20:26:51.984Z,23.58
2018-06-19T20:29:22.834Z,23.59
2018-06-19T20:31:53.802Z,23.56
2018-06-19T20:34:24.593Z,23.60
2018-06-19T20:36:55.574Z,23.60
2018-06-19T20:39:26.649Z,23.62
2018-06-19T20:41:57.639Z,23.59
2018-06-19T20:44:28.945Z,23.56
2018-06-19T20:46:59.882Z,23.55
2018-06-19T20:49:31.507Z,23.44
2018-06-19T20:52:02.555Z,23.32
2018-06-19T20:54:33.628Z,23.24
2018-06-19T20:57:04.742Z,23.12
2018-06-19T20:59:36.033Z,23.04
2018-06-19T21:02:07.084Z,22.95
2018-06-19T21:04:38.378Z,22.89
2018-06-19T21:07:09.406Z,23.01
2018-06-19T21:09:40.676Z,22.97
2018-06-19T21:12:11.688Z,23.10
2018-06-19T21:14:42.840Z,23.10
2018-06-19T21:17:13.907Z,23.05
2018-06-19T21:19:44.792Z,23.05
2018-06-19T21:22:15.588Z,22.83
2018-06-19T21:24:46.638Z,22.85
2018-06-19T21:27:17.633Z,22.93
2018-06-19T21:29:48.425Z,22.92
2018-06-19T21:32:19.300Z,22.97
2018-06-19T21:34:51.085Z,23.00
2018-06-19T21:37:22.042Z,22.93
2018-06-19T21:39:53.089Z,23.01
2018-06-19T21:42:23.781Z,23.06
2018-06-19T21:44:54.805Z,23.11
2018-06-19T21:47:26.074Z,23.15
2018-06-19T21:49:57.154Z,23.12
2018-06-19T21:52:28.278Z,23.17
2018-06-19T21:54:59.238Z,23.15
2018-06-19T21:57:30.246Z,23.05
2018-06-19T22:00:01.442Z,23.06
2018-06-19T22:02:32.243Z,22.94
2018-06-19T22:05:05.129Z,22.94
2018-06-19T22:07:35.912Z,22.93
2018-06-19T22:10:06.837Z,22.79
2018-06-19T22:12:37.894Z,22.79
2018-06-19T22:15:09.061Z,22.82
2018-06-19T22:17:40.055Z,22.81
2018-06-19T22:20:11.240Z,22.76
2018-06-19T22:22:42.321Z,22.77
2018-06-19T22:25:13.138Z,22.62
2018-06-19T22:27:44.116Z,22.52
2018-06-19T22:30:15.050Z,22.56
2018-06-19T22:32:46.006Z,22.60
2018-06-19T22:35:16.928Z,22.55
2018-06-19T22:37:47.738Z,22.62
2018-06-19T22:40:18.882Z,22.65
2018-06-19T22:42:49.738Z,22.59
2018-06-19T22:45:20.665Z,22.52
2018-06-19T22:47:51.643Z,22.41
2018-06-19T22:50:22.602Z,22.28
2018-06-19T22:52:53.563Z,22.27
2018-06-19T22:55:24.488Z,22.24
2018-06-19T22:57:55.400Z,22.13
2018-06-19T23:00:28.104Z,22.11
2018-06-19T23:03:05.760Z,22.01
2018-06-19T23:05:37.716Z,21.91
2018-06-19T23:08:09.147Z,21.95
2018-06-19T23:10:40.131Z,21.94
2018-06-19T23:13:11.180Z,21.80
2018-06-19T23:15:42.223Z,21.66
2018-06-19T23:18:13.412Z,21.67
2018-06-19T23:20:44.616Z,21.74
2018-06-19T23:23:15.779Z,21.68
2018-06-19T23:25:47.766Z,21.69
2018-06-19T23:28:18.958Z,21.65
2018-06-19T23:30:50.331Z,21.67
2018-06-19T23:33:21.719Z,21.69
2018-06-19T23:35:53.033Z,21.63
2018-06-19T23:38:24.174Z,21.71
2018-06-19T23:40:55.298Z,21.76
2018-06-19T23:43:26.645Z,21.85
2018-06-19T23:45:57.668Z,21.87
2018-06-19T23:48:28.631Z,21.90
2018-06-19T23:50:59.804Z,21.96
2018-06-19T23:53:31.633Z,21.90
2018-06-19T23:56:02.739Z,21.96
2018-06-19T23:58:33.465Z,22.07
